Plymouth, MA (02360)

8:36 AM EDT on April 30, 2017 (GMT -0400)
Bridge Gate | | Change Station

Elev 177 ft 41.88 °N, 70.60 °W | Updated 1 minute ago

Clear
Clear
49.1 °F
Feels Like 49 °F
N
2.5
Wind Variable Wind from WNW
Gusts 8.7 mph

Today
High -- | Low -- °F
--% Chance of Precip.
Yesterday
High -- | Low -- °F
Precip. -- in
Pressure 30.28 in
Visibility 10.0 miles
Clouds Clear
Windchill 49 °F
Dew Point 38 °F
Humidity 65%
Rainfall Not available.
Snow Depth Not available.
5:39 AM 7:40 PM
Waxing Crescent, 22% visible
METAR KPYM 301152Z AUTO 04015G22KT 10SM CLR 09/02 A3028 RMK AO2 SLP253 T00940022 10167 20094 51040 TSNO
Pressure 30.28 in
Visibility 10.0 miles
Clouds Clear
Windchill 49 °F
Dew Point 38 °F
Humidity 65%
Rainfall Not available.
Snow Depth Not available.
5:39 AM 7:40 PM
Waxing Crescent, 22% visible
METAR KPYM 301152Z AUTO 04015G22KT 10SM CLR 09/02 A3028 RMK AO2 SLP253 T00940022 10167 20094 51040 TSNO

Get Severe Weather Alerts

Thanks for signing up!

Be on the lookout for a verification email in your inbox.

You'll start receiving the daily forecast at 8 AM.

×

10-Day Weather Forecast

Almanac

Astronomy

Apr. 30, 2017 Rise Set
Actual Time
Civil Twilight
Nautical Twilight
Astronomical Twilight
Moon
Length of Visible Light
Length of Day
Tomorrow will be .
, % of the Moon is Illuminated

Today's Extremes

State Highs State Lows

Community

WunderPhotos

WunderBlog® & News

Nearby

Air Quality

  Air Quality AQ Index Pollutant
Not available.

Snow Depth

Station Depth Elevation

Earthquake Activity

City Distance Mag. Time & Date
Minimum magnitude displayed is 2.5.

Coastal Water Temperatures

Place Temperature

Stations

Nearby Weather Stations

Station Location Temp. Windchill Dew Point Humidity Wind Precip. Elev Updated Type
                   

Watches & Warnings

There are currently no watches in effect.